Time;durP1;ratioP1;P1;durP2;ratioP2;P2;SDS_P1;SDS_P2;PMS_P1;PMS_P2;Temp;Humidity;BMP_temperature;BMP_pressure;BME280_temperature;BME280_humidity;BME280_pressure;Samples;Min_cycle;Max_cycle;Signal;HPM_P1;HPM_P2
2023/03/21 00:01:17;;;;;;;10.60;3.97;;;7.50;99.90;;;;;;474501;250;28019;-77
2023/03/21 00:03:19;;;;;;;4.63;3.40;;;7.40;99.90;;;;;;474526;250;27728;-77
2023/03/21 00:05:20;;;;;;;6.27;3.50;;;7.40;99.90;;;;;;474627;250;28020;-79
2023/03/21 00:07:21;;;;;;;3.40;3.07;;;7.40;99.90;;;;;;474630;250;28325;-79
2023/03/21 00:09:23;;;;;;;7.60;4.13;;;7.40;99.90;;;;;;474657;250;28064;-79
2023/03/21 00:11:24;;;;;;;7.57;3.47;;;7.40;99.90;;;;;;474652;250;28090;-79
2023/03/21 00:13:25;;;;;;;3.53;3.10;;;7.40;99.90;;;;;;474641;250;28080;-79
2023/03/21 00:15:28;;;;;;;6.10;3.50;;;7.30;99.90;;;;;;474617;250;28122;-79
2023/03/21 00:17:30;;;;;;;6.37;4.03;;;7.30;99.90;;;;;;474575;250;28004;-78
2023/03/21 00:19:29;;;;;;;7.23;3.40;;;7.20;99.90;;;;;;474577;250;28050;-79
2023/03/21 00:21:32;;;;;;;5.97;3.53;;;7.20;99.90;;;;;;474547;249;28113;-77
2023/03/21 00:23:31;;;;;;;6.93;3.83;;;7.10;99.90;;;;;;474478;250;27991;-75
2023/03/21 00:25:32;;;;;;;6.20;3.73;;;6.90;99.90;;;;;;474512;248;27840;-74
2023/03/21 00:27:34;;;;;;;9.70;4.20;;;6.80;99.90;;;;;;474466;249;28389;-73
2023/03/21 00:29:35;;;;;;;6.60;3.60;;;6.70;99.90;;;;;;474446;250;28398;-73
2023/03/21 00:31:36;;;;;;;4.90;3.80;;;6.60;99.90;;;;;;474451;248;29207;-74
2023/03/21 00:33:40;;;;;;;5.57;3.80;;;6.60;99.90;;;;;;474540;250;28410;-79
2023/03/21 00:35:43;;;;;;;6.20;3.87;;;6.60;99.90;;;;;;474517;250;28040;-77
2023/03/21 00:37:43;;;;;;;6.63;3.90;;;6.60;99.90;;;;;;474514;248;28130;-76
2023/03/21 00:39:47;;;;;;;5.90;3.90;;;6.60;99.90;;;;;;474572;250;28358;-77
2023/03/21 00:41:45;;;;;;;9.10;3.47;;;6.60;99.90;;;;;;474486;250;28438;-74
2023/03/21 00:43:46;;;;;;;5.10;3.67;;;6.60;99.90;;;;;;474573;250;28433;-79
2023/03/21 00:45:48;;;;;;;8.83;4.37;;;6.60;99.90;;;;;;474557;250;28547;-78
2023/03/21 00:47:49;;;;;;;6.27;4.07;;;6.50;99.90;;;;;;474558;250;28382;-76
2023/03/21 00:49:50;;;;;;;5.80;4.03;;;6.50;99.90;;;;;;474601;250;28323;-78
2023/03/21 00:51:52;;;;;;;3.83;3.40;;;6.50;99.90;;;;;;474588;250;28362;-79
2023/03/21 00:53:53;;;;;;;11.10;4.17;;;6.60;99.90;;;;;;474560;250;28938;-74
2023/03/21 00:55:54;;;;;;;4.10;3.70;;;6.50;99.90;;;;;;474558;250;27877;-73
2023/03/21 00:57:55;;;;;;;5.33;4.00;;;6.40;99.90;;;;;;474543;250;28920;-79
2023/03/21 01:00:00;;;;;;;3.60;3.30;;;6.40;99.90;;;;;;474439;250;28145;-76
2023/03/21 01:01:59;;;;;;;5.73;3.63;;;6.50;99.90;;;;;;474516;250;28007;-76
2023/03/21 01:04:04;;;;;;;3.90;3.57;;;6.40;99.90;;;;;;474528;250;28020;-78
2023/03/21 01:06:03;;;;;;;5.67;3.93;;;6.30;99.90;;;;;;474455;250;28048;-79
2023/03/21 01:08:04;;;;;;;6.03;2.93;;;6.30;99.90;;;;;;474510;250;28130;-77
2023/03/21 01:10:06;;;;;;;4.00;3.33;;;6.40;99.90;;;;;;474530;250;28984;-77
2023/03/21 01:12:07;;;;;;;6.30;3.47;;;6.30;99.90;;;;;;474525;250;28501;-76
2023/03/21 01:14:08;;;;;;;5.27;3.50;;;6.30;99.90;;;;;;474523;250;28453;-76
2023/03/21 01:16:09;;;;;;;6.40;3.87;;;6.20;99.90;;;;;;474537;250;29326;-76
2023/03/21 01:18:10;;;;;;;6.50;4.10;;;6.20;99.90;;;;;;474515;250;28592;-76
2023/03/21 01:20:12;;;;;;;8.18;4.47;;;6.10;99.90;;;;;;474548;250;27561;-73
2023/03/21 01:22:13;;;;;;;5.67;3.93;;;6.20;99.90;;;;;;474556;250;27565;-79
2023/03/21 01:24:14;;;;;;;4.77;4.00;;;6.20;99.90;;;;;;474542;250;28283;-76
2023/03/21 01:26:15;;;;;;;5.15;3.87;;;6.10;99.90;;;;;;474526;250;29085;-76
2023/03/21 01:28:17;;;;;;;6.50;3.95;;;6.10;99.90;;;;;;474528;250;27624;-76
2023/03/21 01:30:18;;;;;;;5.07;4.33;;;6.10;99.90;;;;;;474539;250;28036;-76
2023/03/21 01:32:19;;;;;;;7.60;5.43;;;6.10;99.90;;;;;;474544;250;28478;-77
2023/03/21 01:34:20;;;;;;;4.82;4.00;;;6.10;99.90;;;;;;474551;250;28819;-78
2023/03/21 01:36:22;;;;;;;5.53;3.90;;;6.10;99.90;;;;;;474402;250;27540;-76
2023/03/21 01:38:23;;;;;;;6.10;4.82;;;6.10;99.90;;;;;;474530;250;28035;-76
2023/03/21 01:40:24;;;;;;;6.27;4.90;;;6.10;99.90;;;;;;474569;250;27557;-78
2023/03/21 01:42:25;;;;;;;6.27;4.40;;;6.20;99.90;;;;;;474574;250;27959;-76
2023/03/21 01:44:27;;;;;;;7.13;3.97;;;6.10;99.90;;;;;;474477;250;27893;-76
2023/03/21 01:46:28;;;;;;;7.00;4.00;;;6.20;99.90;;;;;;474524;250;29057;-77
2023/03/21 01:48:29;;;;;;;7.30;4.60;;;6.10;99.90;;;;;;474548;250;27675;-76
2023/03/21 01:50:30;;;;;;;4.50;3.60;;;6.10;99.90;;;;;;474584;250;28266;-76
2023/03/21 01:52:32;;;;;;;8.73;3.73;;;6.10;99.90;;;;;;474569;250;28045;-76
2023/03/21 01:54:33;;;;;;;7.53;4.10;;;6.10;99.90;;;;;;474552;250;28921;-77
2023/03/21 01:56:35;;;;;;;5.73;3.90;;;6.10;99.90;;;;;;474532;250;27993;-77
2023/03/21 01:58:35;;;;;;;10.40;5.93;;;6.10;99.90;;;;;;474504;248;28123;-77
2023/03/21 02:00:37;;;;;;;4.47;3.55;;;6.10;99.90;;;;;;474547;250;29334;-77
2023/03/21 02:02:50;;;;;;;4.50;3.50;;;6.20;99.90;;;;;;474540;250;27987;-77
2023/03/21 02:04:39;;;;;;;5.20;3.30;;;6.20;99.90;;;;;;474273;250;28753;-79
2023/03/21 02:06:40;;;;;;;3.80;3.10;;;6.20;99.90;;;;;;474530;250;27505;-76
2023/03/21 02:08:42;;;;;;;5.10;3.58;;;6.30;99.90;;;;;;474463;250;27615;-76
2023/03/21 02:10:43;;;;;;;5.83;3.97;;;6.20;99.90;;;;;;474502;248;27569;-77
2023/03/21 02:12:44;;;;;;;5.40;3.53;;;6.30;99.90;;;;;;474514;250;27642;-76
2023/03/21 02:14:45;;;;;;;4.33;3.27;;;6.30;99.90;;;;;;474545;250;28048;-78
2023/03/21 02:16:47;;;;;;;4.83;3.60;;;6.20;99.90;;;;;;474546;250;28106;-77
2023/03/21 02:18:48;;;;;;;5.20;3.70;;;6.20;99.90;;;;;;474547;250;27634;-79
2023/03/21 02:20:51;;;;;;;5.80;3.40;;;6.10;99.90;;;;;;474543;250;28728;-78
2023/03/21 02:22:50;;;;;;;7.03;3.47;;;6.10;99.90;;;;;;474482;250;29015;-76
2023/03/21 02:24:52;;;;;;;4.18;3.00;;;6.10;99.90;;;;;;474559;250;28495;-79
2023/03/21 02:26:53;;;;;;;5.57;2.83;;;6.10;99.90;;;;;;474521;249;28163;-76
2023/03/21 02:28:54;;;;;;;6.90;3.55;;;6.10;99.90;;;;;;474550;250;27614;-78
2023/03/21 02:30:55;;;;;;;6.80;3.30;;;6.10;99.90;;;;;;474546;250;27627;-77
2023/03/21 02:32:57;;;;;;;7.40;3.33;;;6.20;99.90;;;;;;474535;250;27623;-79
2023/03/21 02:34:58;;;;;;;4.53;3.20;;;6.20;99.90;;;;;;474518;250;27553;-78
2023/03/21 02:37:00;;;;;;;4.80;2.97;;;6.20;99.90;;;;;;473898;249;27984;-77
2023/03/21 02:39:00;;;;;;;3.73;3.40;;;6.30;99.90;;;;;;474343;250;27990;-76
2023/03/21 02:41:02;;;;;;;4.37;2.83;;;6.30;99.90;;;;;;474516;250;28017;-78
2023/03/21 02:43:03;;;;;;;6.17;3.67;;;6.30;99.90;;;;;;474465;250;28492;-77
2023/03/21 02:45:04;;;;;;;7.47;3.57;;;6.30;99.90;;;;;;474536;250;28532;-76
2023/03/21 02:47:05;;;;;;;4.50;3.27;;;6.30;99.90;;;;;;474837;250;28631;-78
2023/03/21 02:49:07;;;;;;;4.33;2.97;;;6.30;99.90;;;;;;474815;250;27854;-78
2023/03/21 02:51:08;;;;;;;3.72;3.00;;;6.20;99.90;;;;;;474548;250;28423;-76
2023/03/21 02:53:09;;;;;;;4.10;2.90;;;6.20;99.90;;;;;;474537;250;27498;-76
2023/03/21 02:55:12;;;;;;;8.60;3.33;;;6.20;99.90;;;;;;474495;250;27557;-76
2023/03/21 02:57:12;;;;;;;5.57;2.97;;;6.10;99.90;;;;;;474504;250;28126;-76
2023/03/21 02:59:13;;;;;;;5.90;2.87;;;6.10;99.90;;;;;;474524;250;28098;-76
2023/03/21 03:01:14;;;;;;;5.70;3.70;;;6.00;99.90;;;;;;474528;250;27549;-76
2023/03/21 03:03:16;;;;;;;6.27;2.90;;;6.00;99.90;;;;;;474532;250;27506;-76
2023/03/21 03:05:17;;;;;;;8.40;3.90;;;5.90;99.90;;;;;;474515;250;28369;-75
2023/03/21 03:07:18;;;;;;;3.47;3.10;;;5.90;99.90;;;;;;474511;250;28635;-75
2023/03/21 03:09:19;;;;;;;5.27;2.93;;;5.80;99.90;;;;;;474541;250;28672;-73
2023/03/21 03:11:20;;;;;;;3.70;2.97;;;5.80;99.90;;;;;;474526;248;29459;-74
2023/03/21 03:13:22;;;;;;;5.33;3.20;;;5.80;99.90;;;;;;474464;250;28933;-73
2023/03/21 03:15:27;;;;;;;3.35;2.42;;;5.80;99.90;;;;;;474516;250;28986;-74
2023/03/21 03:17:24;;;;;;;6.70;3.22;;;5.90;99.90;;;;;;474440;250;27552;-75
2023/03/21 03:19:28;;;;;;;7.25;3.12;;;6.00;99.90;;;;;;474565;250;27597;-74
2023/03/21 03:21:27;;;;;;;5.40;3.00;;;6.00;99.90;;;;;;474528;250;27637;-73
2023/03/21 03:23:28;;;;;;;6.47;3.40;;;6.00;99.90;;;;;;474456;250;28860;-74
2023/03/21 03:25:29;;;;;;;7.20;3.05;;;6.00;99.90;;;;;;474539;250;28079;-74
2023/03/21 03:27:31;;;;;;;7.17;4.03;;;6.00;99.90;;;;;;474517;250;28076;-74
2023/03/21 03:29:32;;;;;;;5.40;2.80;;;6.10;99.90;;;;;;474512;250;29331;-74
2023/03/21 03:31:33;;;;;;;5.47;3.35;;;6.00;99.90;;;;;;474561;249;28617;-73
2023/03/21 03:33:34;;;;;;;5.00;2.97;;;6.00;99.90;;;;;;474575;250;27496;-74
2023/03/21 03:35:35;;;;;;;6.03;3.25;;;5.90;99.90;;;;;;474084;250;27545;-74
2023/03/21 03:37:37;;;;;;;8.30;3.80;;;5.90;99.90;;;;;;474674;250;27524;-78
2023/03/21 03:39:38;;;;;;;5.93;3.37;;;5.90;99.90;;;;;;474507;250;28774;-75
2023/03/21 03:41:39;;;;;;;5.47;3.40;;;5.80;99.90;;;;;;474634;250;28108;-79
2023/03/21 03:43:41;;;;;;;4.67;2.70;;;5.80;99.90;;;;;;474528;250;29163;-77
2023/03/21 03:45:42;;;;;;;4.00;2.70;;;5.80;99.90;;;;;;474639;250;29305;-78
2023/03/21 03:47:43;;;;;;;3.78;3.30;;;5.80;99.90;;;;;;474493;250;29527;-76
2023/03/21 03:49:44;;;;;;;4.50;3.00;;;5.80;99.90;;;;;;474509;250;27514;-76
2023/03/21 03:51:46;;;;;;;5.70;3.05;;;5.80;99.90;;;;;;474516;250;27864;-79
2023/03/21 03:53:47;;;;;;;4.20;3.00;;;5.80;99.90;;;;;;474559;250;27565;-78
2023/03/21 03:55:48;;;;;;;7.10;3.40;;;5.80;99.90;;;;;;474539;249;28244;-77
2023/03/21 03:57:49;;;;;;;5.30;2.87;;;5.80;99.90;;;;;;474566;250;27546;-77
2023/03/21 03:59:51;;;;;;;5.13;3.67;;;5.90;99.90;;;;;;474513;250;27589;-76
2023/03/21 04:01:52;;;;;;;6.90;3.83;;;5.90;99.90;;;;;;474556;250;28899;-78
2023/03/21 04:03:53;;;;;;;7.15;2.83;;;5.90;99.90;;;;;;474504;250;29955;-76
2023/03/21 04:05:54;;;;;;;7.03;3.17;;;5.90;99.90;;;;;;474463;250;27508;-76
2023/03/21 04:07:56;;;;;;;4.03;3.22;;;6.00;99.90;;;;;;474507;250;27649;-76
2023/03/21 04:09:57;;;;;;;4.30;3.00;;;6.10;99.90;;;;;;474601;250;27666;-78
2023/03/21 04:11:58;;;;;;;7.80;3.37;;;6.10;99.90;;;;;;474429;248;27556;-76
2023/03/21 04:13:59;;;;;;;3.83;3.40;;;6.20;99.90;;;;;;474592;250;27639;-78
2023/03/21 04:16:01;;;;;;;5.43;3.30;;;6.20;99.90;;;;;;474444;250;28024;-78
2023/03/21 04:18:02;;;;;;;6.93;2.60;;;6.30;99.90;;;;;;474575;250;28032;-78
2023/03/21 04:20:05;;;;;;;5.35;2.87;;;6.30;99.90;;;;;;474629;250;29558;-79
2023/03/21 04:22:04;;;;;;;5.13;3.30;;;6.30;99.90;;;;;;474514;250;27582;-77
2023/03/21 04:24:06;;;;;;;5.60;3.20;;;6.30;99.90;;;;;;474609;250;28127;-79
2023/03/21 04:26:07;;;;;;;3.43;2.70;;;6.30;99.90;;;;;;474624;250;28783;-79
2023/03/21 04:28:08;;;;;;;3.60;3.30;;;6.40;99.90;;;;;;474531;250;28490;-78
2023/03/21 04:30:11;;;;;;;5.80;3.60;;;6.40;99.90;;;;;;474555;250;27534;-76
2023/03/21 04:32:16;;;;;;;8.43;3.20;;;6.50;99.90;;;;;;474519;250;27564;-73
2023/03/21 04:34:12;;;;;;;6.20;3.37;;;6.60;99.90;;;;;;474412;250;27983;-73
2023/03/21 04:36:23;;;;;;;6.10;3.30;;;6.60;99.90;;;;;;474551;248;28634;-74
2023/03/21 04:38:14;;;;;;;5.27;2.93;;;6.60;99.90;;;;;;474337;250;28659;-74
2023/03/21 04:40:17;;;;;;;5.93;3.00;;;6.70;99.90;;;;;;474557;250;28546;-74
2023/03/21 04:42:20;;;;;;;5.70;3.07;;;6.70;99.90;;;;;;474562;250;28513;-79
2023/03/21 04:44:21;;;;;;;5.10;2.73;;;6.70;99.90;;;;;;474537;250;28265;-78
2023/03/21 04:46:22;;;;;;;3.10;2.40;;;6.70;99.90;;;;;;474546;250;28132;-74
2023/03/21 04:48:24;;;;;;;6.20;3.10;;;6.70;99.90;;;;;;474527;250;28228;-74
2023/03/21 04:50:25;;;;;;;4.97;2.80;;;6.70;99.90;;;;;;474558;250;27656;-75
2023/03/21 04:52:26;;;;;;;4.50;3.10;;;6.70;99.90;;;;;;474544;250;27870;-75
2023/03/21 04:54:27;;;;;;;5.20;3.17;;;6.70;99.90;;;;;;474464;250;28011;-74
2023/03/21 04:56:32;;;;;;;3.60;2.30;;;6.80;99.90;;;;;;474558;250;27888;-74
2023/03/21 04:58:33;;;;;;;3.07;2.80;;;6.80;99.90;;;;;;474524;250;28144;-74
2023/03/21 05:00:37;;;;;;;3.43;2.90;;;6.80;99.90;;;;;;474544;250;28353;-75
2023/03/21 05:02:38;;;;;;;6.20;2.93;;;6.90;99.90;;;;;;474457;250;28044;-74
2023/03/21 05:04:39;;;;;;;4.93;3.20;;;6.80;99.90;;;;;;474528;250;28027;-76
2023/03/21 05:06:44;;;;;;;8.40;3.00;;;6.80;99.90;;;;;;474464;250;28285;-74
2023/03/21 05:08:42;;;;;;;2.87;2.50;;;6.80;99.90;;;;;;474436;250;28523;-78
2023/03/21 05:10:43;;;;;;;5.33;2.97;;;6.80;99.90;;;;;;474612;250;28643;-79
2023/03/21 05:12:44;;;;;;;3.10;2.60;;;6.80;99.90;;;;;;474571;250;28457;-77
2023/03/21 05:14:45;;;;;;;3.70;2.63;;;6.80;99.90;;;;;;474506;250;28572;-74
2023/03/21 05:16:55;;;;;;;5.40;2.83;;;6.80;99.90;;;;;;474539;250;27783;-74
2023/03/21 05:18:54;;;;;;;3.83;3.30;;;6.70;99.90;;;;;;474474;250;28116;-74
2023/03/21 05:20:55;;;;;;;3.37;3.07;;;6.70;99.90;;;;;;474575;250;28046;-74
2023/03/21 05:22:56;;;;;;;6.20;3.27;;;6.60;99.90;;;;;;474546;250;27988;-74
2023/03/21 05:24:58;;;;;;;3.63;3.00;;;6.50;99.90;;;;;;474560;250;27755;-76
2023/03/21 05:27:02;;;;;;;6.70;3.03;;;6.50;99.90;;;;;;474548;250;28009;-78
2023/03/21 05:29:03;;;;;;;6.47;3.10;;;6.50;99.90;;;;;;474544;250;27766;-76
2023/03/21 05:31:04;;;;;;;4.97;3.37;;;6.50;99.90;;;;;;474532;250;28243;-76
2023/03/21 05:33:05;;;;;;;6.20;3.07;;;6.50;99.90;;;;;;474465;248;28911;-76
2023/03/21 05:35:07;;;;;;;6.10;2.77;;;6.50;99.90;;;;;;474542;250;28255;-79
2023/03/21 05:37:08;;;;;;;2.97;2.70;;;6.60;99.90;;;;;;474527;250;28115;-76
2023/03/21 05:39:09;;;;;;;4.60;2.60;;;6.60;99.90;;;;;;474528;250;28090;-76
2023/03/21 05:41:10;;;;;;;5.20;2.70;;;6.60;99.90;;;;;;474444;250;28481;-76
2023/03/21 05:43:12;;;;;;;3.13;2.83;;;6.60;99.90;;;;;;474509;250;28519;-77
2023/03/21 05:45:13;;;;;;;5.00;2.93;;;6.60;99.90;;;;;;474532;250;28848;-77
2023/03/21 05:47:14;;;;;;;3.77;2.53;;;6.70;99.90;;;;;;474536;250;28153;-74
2023/03/21 05:49:15;;;;;;;4.00;2.67;;;6.70;99.90;;;;;;474515;250;28487;-75
2023/03/21 05:51:17;;;;;;;6.43;2.97;;;6.70;99.90;;;;;;474361;250;27929;-75
2023/03/21 05:53:18;;;;;;;4.30;2.97;;;6.70;99.90;;;;;;474519;250;27543;-78
2023/03/21 05:55:19;;;;;;;4.77;2.90;;;6.60;99.90;;;;;;474507;250;28178;-78
2023/03/21 05:57:21;;;;;;;3.93;2.60;;;6.70;99.90;;;;;;474546;250;28699;-77
2023/03/21 05:59:22;;;;;;;4.43;2.67;;;6.70;99.90;;;;;;474545;250;27997;-78
2023/03/21 06:01:23;;;;;;;3.20;2.63;;;6.70;99.90;;;;;;474540;250;28103;-78
2023/03/21 06:03:24;;;;;;;5.80;2.67;;;6.70;99.90;;;;;;474517;250;27981;-76
2023/03/21 06:05:26;;;;;;;4.53;2.57;;;6.70;99.90;;;;;;474538;250;28022;-79
2023/03/21 06:07:27;;;;;;;4.77;2.50;;;6.70;99.90;;;;;;474544;250;28050;-78
2023/03/21 06:09:28;;;;;;;3.97;2.73;;;6.80;99.90;;;;;;474512;250;28121;-78
2023/03/21 06:11:29;;;;;;;5.50;2.43;;;6.80;99.90;;;;;;474503;250;28037;-77
2023/03/21 06:13:31;;;;;;;4.23;2.60;;;6.90;99.90;;;;;;474545;250;28032;-79
2023/03/21 06:15:32;;;;;;;3.43;2.37;;;7.00;99.90;;;;;;474531;250;28158;-79
2023/03/21 06:17:33;;;;;;;9.30;2.87;;;7.10;99.90;;;;;;474535;250;28086;-79
2023/03/21 06:19:34;;;;;;;5.60;2.63;;;7.20;99.90;;;;;;474533;250;27791;-79
2023/03/21 06:21:35;;;;;;;4.77;2.83;;;7.20;99.90;;;;;;474528;250;28215;-79
2023/03/21 06:23:37;;;;;;;5.70;2.60;;;7.20;99.90;;;;;;474506;249;28937;-79
2023/03/21 06:25:38;;;;;;;5.17;2.40;;;7.30;99.90;;;;;;474503;250;28469;-78
2023/03/21 06:27:39;;;;;;;3.20;2.60;;;7.30;99.90;;;;;;474514;250;28483;-78
2023/03/21 06:29:40;;;;;;;3.20;2.57;;;7.40;99.90;;;;;;474503;250;28292;-79
2023/03/21 06:31:42;;;;;;;2.80;2.47;;;7.40;99.90;;;;;;474639;250;28530;-78
2023/03/21 06:33:43;;;;;;;5.37;2.80;;;7.50;99.90;;;;;;474813;250;27905;-77
2023/03/21 06:35:44;;;;;;;4.73;2.30;;;7.50;99.90;;;;;;474840;250;27905;-78
2023/03/21 06:37:48;;;;;;;5.93;2.87;;;7.60;99.90;;;;;;474896;250;28054;-78
2023/03/21 06:39:47;;;;;;;3.30;2.30;;;7.70;99.90;;;;;;474687;248;28022;-78
2023/03/21 06:41:48;;;;;;;3.03;2.50;;;7.70;99.90;;;;;;474713;250;28004;-78
2023/03/21 06:43:49;;;;;;;4.47;2.20;;;7.80;99.90;;;;;;474621;250;28031;-79
2023/03/21 06:45:50;;;;;;;5.13;2.80;;;7.90;99.90;;;;;;474706;250;28221;-78
2023/03/21 06:47:52;;;;;;;6.67;3.20;;;7.90;99.90;;;;;;474651;250;28057;-78
2023/03/21 06:49:53;;;;;;;10.93;4.83;;;7.90;99.90;;;;;;474738;250;27626;-79
2023/03/21 06:51:54;;;;;;;4.73;3.70;;;7.90;99.90;;;;;;474778;250;28115;-78
2023/03/21 06:53:55;;;;;;;6.07;3.47;;;7.90;99.90;;;;;;474675;250;27895;-78
2023/03/21 06:55:57;;;;;;;4.90;2.90;;;8.00;99.90;;;;;;474765;250;27856;-78
2023/03/21 06:57:58;;;;;;;6.47;3.33;;;8.00;99.90;;;;;;474767;250;28240;-79
2023/03/21 06:59:59;;;;;;;4.87;2.73;;;8.10;99.90;;;;;;474748;250;28575;-79
2023/03/21 07:02:01;;;;;;;6.33;2.80;;;8.10;99.90;;;;;;474718;250;28243;-78
2023/03/21 07:04:03;;;;;;;8.00;3.00;;;8.20;99.90;;;;;;474730;248;28530;-79
2023/03/21 07:06:03;;;;;;;6.70;3.30;;;8.20;99.90;;;;;;474665;250;28563;-79
2023/03/21 07:08:04;;;;;;;3.37;2.70;;;8.20;99.90;;;;;;474635;250;28926;-79
2023/03/21 07:10:05;;;;;;;4.03;2.90;;;8.40;99.90;;;;;;474600;250;27957;-79
2023/03/21 07:12:07;;;;;;;9.80;3.50;;;8.50;99.90;;;;;;474661;250;27896;-79
2023/03/21 07:14:08;;;;;;;6.77;3.37;;;8.50;99.90;;;;;;474622;250;27985;-79
2023/03/21 07:16:09;;;;;;;5.13;2.63;;;8.70;99.90;;;;;;474688;250;28072;-79
2023/03/21 07:18:10;;;;;;;4.73;2.83;;;8.80;99.90;;;;;;474696;250;27662;-78
2023/03/21 07:20:12;;;;;;;4.40;2.97;;;8.90;99.90;;;;;;474697;250;27649;-79
2023/03/21 07:22:13;;;;;;;7.43;3.20;;;9.00;99.90;;;;;;474701;250;27636;-79
2023/03/21 07:24:14;;;;;;;6.63;3.20;;;9.10;99.90;;;;;;474693;250;28135;-79
2023/03/21 07:26:17;;;;;;;4.27;3.10;;;9.20;99.90;;;;;;474691;250;27882;-79
2023/03/21 07:28:17;;;;;;;6.10;2.93;;;9.30;99.90;;;;;;474678;250;27675;-79
2023/03/21 07:30:18;;;;;;;6.83;2.93;;;9.30;99.90;;;;;;474701;250;28133;-78
2023/03/21 07:32:19;;;;;;;3.20;2.70;;;9.40;99.90;;;;;;474730;250;28128;-79
2023/03/21 07:34:20;;;;;;;6.30;2.80;;;9.50;99.90;;;;;;474637;250;28119;-79
2023/03/21 07:36:22;;;;;;;3.87;3.40;;;9.50;99.90;;;;;;474617;250;28405;-79
2023/03/21 07:38:23;;;;;;;5.83;2.63;;;9.50;99.90;;;;;;474641;250;28403;-78
2023/03/21 07:40:24;;;;;;;3.53;2.23;;;9.50;99.90;;;;;;474566;250;28593;-79
2023/03/21 07:42:25;;;;;;;4.20;2.80;;;9.60;99.90;;;;;;474628;250;28483;-78
2023/03/21 07:44:28;;;;;;;3.57;2.60;;;9.60;99.90;;;;;;474563;250;28462;-79
2023/03/21 07:46:28;;;;;;;3.03;2.23;;;9.70;99.90;;;;;;474576;250;28467;-79
2023/03/21 07:48:29;;;;;;;3.70;2.40;;;9.70;99.90;;;;;;474585;250;28079;-79
2023/03/21 07:50:30;;;;;;;2.90;2.23;;;9.80;99.90;;;;;;474577;250;27979;-79
2023/03/21 07:52:32;;;;;;;5.80;2.47;;;9.80;99.90;;;;;;474553;250;28118;-79
2023/03/21 07:54:33;;;;;;;3.37;2.00;;;10.00;99.90;;;;;;474590;250;28146;-78
2023/03/21 07:56:35;;;;;;;2.67;2.30;;;10.00;99.90;;;;;;474590;250;28561;-79
2023/03/21 07:58:35;;;;;;;6.67;2.47;;;10.10;99.90;;;;;;474558;250;28102;-79
2023/03/21 08:00:37;;;;;;;5.10;2.40;;;10.10;99.90;;;;;;474578;250;28005;-79
2023/03/21 08:02:38;;;;;;;3.20;2.03;;;10.10;99.90;;;;;;474501;250;28022;-79
2023/03/21 08:04:39;;;;;;;3.93;2.17;;;10.10;99.90;;;;;;474567;250;28177;-78
2023/03/21 08:06:40;;;;;;;2.33;1.90;;;10.30;99.90;;;;;;474595;250;27960;-79
2023/03/21 08:08:42;;;;;;;3.93;2.77;;;10.30;99.90;;;;;;474581;250;28849;-79
2023/03/21 08:10:43;;;;;;;4.33;2.27;;;10.40;99.90;;;;;;474577;250;28639;-79
2023/03/21 08:12:44;;;;;;;7.10;2.20;;;10.50;99.90;;;;;;474568;250;28726;-79
2023/03/21 08:14:45;;;;;;;5.80;2.77;;;10.50;99.90;;;;;;474590;250;28490;-79
2023/03/21 08:16:47;;;;;;;2.20;1.97;;;10.50;99.90;;;;;;474572;250;28116;-79
2023/03/21 08:18:48;;;;;;;3.60;1.80;;;10.60;99.90;;;;;;474578;250;28397;-79
2023/03/21 08:20:49;;;;;;;3.47;2.40;;;10.60;99.90;;;;;;474571;250;28331;-79
2023/03/21 08:22:50;;;;;;;6.03;2.57;;;10.70;99.90;;;;;;474567;250;28214;-79
2023/03/21 08:24:52;;;;;;;3.50;2.20;;;10.70;99.90;;;;;;474598;250;28223;-78
2023/03/21 08:26:53;;;;;;;3.60;1.93;;;10.70;99.90;;;;;;474582;250;28252;-79
2023/03/21 08:28:54;;;;;;;2.30;2.10;;;10.80;99.90;;;;;;474603;250;28286;-79
2023/03/21 08:30:55;;;;;;;3.60;2.30;;;10.80;99.90;;;;;;474584;250;28400;-79
2023/03/21 08:32:57;;;;;;;4.37;2.80;;;10.80;99.90;;;;;;474590;249;28909;-79
2023/03/21 08:34:58;;;;;;;4.87;2.20;;;10.80;99.90;;;;;;474603;250;29044;-79
2023/03/21 08:36:59;;;;;;;6.77;2.80;;;10.90;99.90;;;;;;474589;250;28733;-79
2023/03/21 08:39:04;;;;;;;4.10;2.57;;;10.90;99.90;;;;;;474506;250;28838;-79
2023/03/21 08:41:02;;;;;;;3.33;2.27;;;10.90;99.90;;;;;;474435;250;28323;-79
2023/03/21 08:43:03;;;;;;;2.93;2.60;;;10.90;99.90;;;;;;474536;250;28341;-79
2023/03/21 08:45:04;;;;;;;2.97;2.10;;;11.00;99.90;;;;;;474583;250;28492;-79
2023/03/21 08:47:05;;;;;;;4.43;2.43;;;11.00;99.90;;;;;;474533;250;28472;-79
2023/03/21 08:49:07;;;;;;;3.73;2.50;;;11.00;99.90;;;;;;474545;250;28357;-79
2023/03/21 08:51:08;;;;;;;4.03;2.40;;;11.10;99.90;;;;;;474430;250;28276;-78
2023/03/21 08:53:09;;;;;;;6.00;2.30;;;11.00;99.90;;;;;;474592;250;28250;-78
2023/03/21 08:55:10;;;;;;;3.47;2.90;;;10.80;99.90;;;;;;474484;250;28506;-79
2023/03/21 08:57:12;;;;;;;7.33;2.50;;;10.90;99.90;;;;;;474620;250;28226;-79
2023/03/21 08:59:13;;;;;;;4.20;2.80;;;10.90;99.90;;;;;;474560;250;28691;-79
2023/03/21 09:01:14;;;;;;;3.40;2.70;;;10.90;99.90;;;;;;474551;250;28895;-78
2023/03/21 09:03:15;;;;;;;5.40;2.87;;;11.00;99.90;;;;;;474537;248;28971;-77
2023/03/21 09:05:18;;;;;;;3.27;2.70;;;;;;;;;;474564;250;28452;-79
2023/03/21 09:07:19;;;;;;;6.33;2.40;;;10.90;99.90;;;;;;474581;250;27256;-78
2023/03/21 09:09:22;;;;;;;3.53;2.67;;;;;;;;;;474549;250;28379;-79
2023/03/21 09:11:23;;;;;;;3.60;2.60;;;11.00;99.90;;;;;;474538;250;27355;-78
2023/03/21 09:13:25;;;;;;;5.37;2.90;;;;;;;;;;474565;250;28234;-79
2023/03/21 09:15:27;;;;;;;3.83;2.23;;;11.10;99.90;;;;;;474573;250;27819;-78
2023/03/21 09:17:28;;;;;;;2.70;2.50;;;11.20;99.90;;;;;;474548;250;28221;-78
2023/03/21 09:19:30;;;;;;;5.17;2.63;;;11.30;99.90;;;;;;474551;250;28687;-78
2023/03/21 09:21:30;;;;;;;2.80;2.10;;;11.30;99.90;;;;;;474487;250;28523;-79
2023/03/21 09:23:32;;;;;;;3.73;1.70;;;11.30;99.90;;;;;;474557;250;28241;-79
2023/03/21 09:25:33;;;;;;;7.00;2.90;;;11.50;99.90;;;;;;474565;250;28429;-78
2023/03/21 09:27:34;;;;;;;4.18;2.60;;;11.60;99.90;;;;;;474360;250;26275;-79
2023/03/21 09:29:35;;;;;;;3.97;3.13;;;11.80;99.90;;;;;;474565;250;27567;-79
2023/03/21 09:31:38;;;;;;;3.33;2.50;;;11.80;99.90;;;;;;474553;250;28533;-79
2023/03/21 09:33:39;;;;;;;3.80;2.50;;;11.80;99.90;;;;;;474451;250;29147;-79
2023/03/21 09:35:39;;;;;;;3.17;2.90;;;11.90;99.90;;;;;;474523;250;29374;-79
2023/03/21 09:37:41;;;;;;;3.63;2.60;;;11.80;99.90;;;;;;474579;250;28522;-79
2023/03/21 09:39:41;;;;;;;4.60;2.57;;;11.90;99.90;;;;;;474538;250;28366;-79
2023/03/21 09:41:44;;;;;;;4.53;2.30;;;12.00;99.90;;;;;;474559;250;28923;-79
2023/03/21 09:43:48;;;;;;;3.00;2.50;;;;;;;;;;474402;250;28298;-79
2023/03/21 09:45:46;;;;;;;2.97;2.57;;;12.10;99.90;;;;;;474400;250;27155;-78
2023/03/21 09:47:55;;;;;;;3.03;2.30;;;12.10;99.90;;;;;;474573;250;28812;-79
2023/03/21 09:49:56;;;;;;;2.70;2.50;;;12.20;99.90;;;;;;474519;250;28231;-79
2023/03/21 09:51:56;;;;;;;5.87;2.57;;;12.20;99.90;;;;;;474537;250;28381;-79
2023/03/21 09:53:57;;;;;;;2.70;2.37;;;12.20;99.90;;;;;;474571;250;28301;-78
2023/03/21 09:55:58;;;;;;;4.80;2.43;;;12.10;99.90;;;;;;474551;250;28857;-79
2023/03/21 09:58:01;;;;;;;6.30;2.70;;;;;;;;;;474589;250;28647;-78
2023/03/21 10:00:13;;;;;;;2.90;2.60;;;11.90;99.90;;;;;;474577;250;26539;-79
2023/03/21 10:02:10;;;;;;;2.57;2.37;;;12.10;99.90;;;;;;474423;250;28888;-80
2023/03/21 10:04:10;;;;;;;4.20;2.97;;;12.10;99.90;;;;;;474551;250;28584;-79
2023/03/21 10:06:12;;;;;;;3.03;2.20;;;12.10;99.90;;;;;;474580;250;28269;-79
2023/03/21 10:08:13;;;;;;;2.60;2.40;;;12.20;99.90;;;;;;474541;250;28344;-79
2023/03/21 10:10:14;;;;;;;2.80;2.60;;;12.20;99.90;;;;;;474530;250;28414;-79
2023/03/21 10:12:15;;;;;;;2.50;2.30;;;12.20;99.90;;;;;;474466;250;28285;-78
2023/03/21 10:14:17;;;;;;;4.20;2.63;;;12.40;99.90;;;;;;474492;250;28419;-79
2023/03/21 10:16:18;;;;;;;3.10;2.77;;;12.40;99.90;;;;;;474420;250;28286;-78
2023/03/21 10:18:19;;;;;;;3.10;2.80;;;12.30;99.90;;;;;;474493;250;28754;-79
2023/03/21 10:20:20;;;;;;;3.00;2.60;;;12.40;99.90;;;;;;474774;250;28946;-77
2023/03/21 10:22:22;;;;;;;3.27;2.40;;;12.40;99.90;;;;;;474913;249;29560;-77
2023/03/21 10:24:23;;;;;;;2.80;2.50;;;12.50;99.90;;;;;;474888;250;28242;-78
2023/03/21 10:26:26;;;;;;;2.63;2.43;;;12.60;99.90;;;;;;474952;250;28172;-78
2023/03/21 10:28:25;;;;;;;5.10;2.40;;;12.70;99.90;;;;;;474827;248;28442;-79
2023/03/21 10:30:27;;;;;;;2.43;2.23;;;12.80;99.90;;;;;;474907;250;28350;-79
2023/03/21 10:32:28;;;;;;;2.80;2.13;;;12.90;99.90;;;;;;474810;250;28245;-79
2023/03/21 10:34:30;;;;;;;1.97;1.87;;;12.90;99.90;;;;;;474740;250;28230;-79
2023/03/21 10:36:30;;;;;;;3.70;2.73;;;13.00;99.90;;;;;;474808;250;28278;-79
2023/03/21 10:38:32;;;;;;;4.90;2.40;;;13.00;99.90;;;;;;474816;250;28482;-79